PWSweather.com
Personal Weather Stations
Station Observations
KTXPLANO60
Highlands Of Russell Park, Plano, TX 75025

Highlands Of Russell ParkPlano, TX 75025

Lat: 33.10431671, Lon: -96.75176239

Elevation: 761

Station Type: Davis Wireless VP2 Plus

http://www.planoweather.com

Latest ConditionsUpdated 10:50:01 PM CDT Tuesday, Aug 20, 2019
Currently Today's Max Today's Min Today's Average
Temperature 89.4°F31.9°C 101.0°F38.3°C 79.2°F26.2°C 90.7°F32.6°C
Dew Point 71.1°F21.7°C 75.7°F24.3°C 67.9°F19.9°C 72.5°F22.5°C
Winds 3.5 mph ESE5.6 kmh ESE 10.4 mph -16.7 kmh - - 4.5 mph 7.2 kmh
Wind Gusts 4.6 mph7.4 kmh 16.1 mph25.9 kmh - -
Humidity 55% 82% 36% 57%
Pressure 29.92 in1013.2 mb 29.95 in1014.2 mb 29.84 in1010.5 mb -
Hour Temp Dew Point Humidity Winds Wind Gusts Pressure Precip Precip Rate Daily Precip Total
10:50 PM 89.4°F31.9°C 71.1°F21.7°C 55% 3.5 mph ESE5.6 kmh ESE 4.6 mph7.4 kmh 29.92 in1013.2 mb - 0.00 in0.0 mm 0.00 in0.0 mm
10:40 PM 89.7°F32.1°C 70.9°F21.6°C 54% 2.3 mph SE3.7 kmh SE 4.6 mph7.4 kmh 29.92 in1013.2 mb - 0.00 in0.0 mm 0.00 in0.0 mm
10:30 PM 90.0°F32.2°C 70.6°F21.4°C 53% 4.6 mph ESE7.4 kmh ESE 5.8 mph9.3 kmh 29.92 in1013.2 mb - 0.00 in0.0 mm 0.00 in0.0 mm
10:20 PM 90.3°F32.4°C 70.8°F21.6°C 53% 3.5 mph SE5.6 kmh SE 3.5 mph5.6 kmh 29.91 in1012.9 mb - 0.00 in0.0 mm 0.00 in0.0 mm
10:10 PM 90.4°F32.4°C 70.4°F21.3°C 52% 4.6 mph SE7.4 kmh SE 5.8 mph9.3 kmh 29.90 in1012.5 mb - 0.00 in0.0 mm 0.00 in0.0 mm
10:00 PM 90.6°F32.6°C 70.6°F21.4°C 52% 2.3 mph SE3.7 kmh SE 4.6 mph7.4 kmh 29.89 in1012.2 mb - 0.00 in0.0 mm 0.00 in0.0 mm
09:50 PM 91.0°F32.8°C 70.3°F21.3°C 51% 2.3 mph SE3.7 kmh SE 3.5 mph5.6 kmh 29.89 in1012.2 mb - 0.00 in0.0 mm 0.00 in0.0 mm
09:40 PM 91.3°F32.9°C 70.6°F21.4°C 51% 4.6 mph SE7.4 kmh SE 5.8 mph9.3 kmh 29.88 in1011.9 mb - 0.00 in0.0 mm 0.00 in0.0 mm
09:30 PM 91.5°F33.1°C 70.2°F21.2°C 50% 4.6 mph SE7.4 kmh SE 4.6 mph7.4 kmh 29.87 in1011.5 mb - 0.00 in0.0 mm 0.00 in0.0 mm
09:20 PM 91.8°F33.2°C 70.5°F21.4°C 50% 2.3 mph SE3.7 kmh SE 4.6 mph7.4 kmh 29.87 in1011.5 mb - 0.00 in0.0 mm 0.00 in0.0 mm
09:10 PM 92.0°F33.3°C 70.1°F21.2°C 49% 2.3 mph SE3.7 kmh SE 5.8 mph9.3 kmh 29.86 in1011.2 mb - 0.00 in0.0 mm 0.00 in0.0 mm
09:00 PM 92.5°F33.6°C 69.9°F21.1°C 48% 1.2 mph SE1.9 kmh SE 3.5 mph5.6 kmh 29.86 in1011.2 mb - 0.00 in0.0 mm 0.00 in0.0 mm
08:50 PM 93.0°F33.9°C 69.8°F21.0°C 47% 3.5 mph S5.6 kmh S 4.6 mph7.4 kmh 29.86 in1011.2 mb - 0.00 in0.0 mm 0.00 in0.0 mm
08:40 PM 93.3°F34.1°C 70.1°F21.2°C 47% 3.5 mph SE5.6 kmh SE 6.9 mph11.1 kmh 29.86 in1011.2 mb - 0.00 in0.0 mm 0.00 in0.0 mm
08:30 PM 93.7°F34.3°C 70.5°F21.4°C 47% 5.8 mph SE9.3 kmh SE 8.1 mph13.0 kmh 29.85 in1010.8 mb - 0.00 in0.0 mm 0.00 in0.0 mm
08:20 PM 94.1°F34.5°C 70.2°F21.2°C 46% 5.8 mph SE9.3 kmh SE 6.9 mph11.1 kmh 29.85 in1010.8 mb - 0.00 in0.0 mm 0.00 in0.0 mm
08:10 PM 94.5°F34.7°C 70.5°F21.4°C 46% 5.8 mph SE9.3 kmh SE 6.9 mph11.1 kmh 29.85 in1010.8 mb - 0.00 in0.0 mm 0.00 in0.0 mm
08:00 PM 94.8°F34.9°C 70.1°F21.2°C 45% 4.6 mph SE7.4 kmh SE 6.9 mph11.1 kmh 29.85 in1010.8 mb - 0.00 in0.0 mm 0.00 in0.0 mm
07:50 PM 95.3°F35.2°C 70.0°F21.1°C 44% 4.6 mph SE7.4 kmh SE 5.8 mph9.3 kmh 29.84 in1010.5 mb - 0.00 in0.0 mm 0.00 in0.0 mm
07:40 PM 95.7°F35.4°C 71.0°F21.7°C 45% 6.9 mph SE11.1 kmh SE 10.4 mph16.7 kmh 29.84 in1010.5 mb - 0.00 in0.0 mm 0.00 in0.0 mm
07:30 PM 96.2°F35.7°C 70.7°F21.5°C 44% 6.9 mph SE11.1 kmh SE 10.4 mph16.7 kmh 29.84 in1010.5 mb - 0.00 in0.0 mm 0.00 in0.0 mm
07:20 PM 96.6°F35.9°C 70.4°F21.3°C 43% 4.6 mph SE7.4 kmh SE 9.2 mph14.8 kmh 29.84 in1010.5 mb - 0.00 in0.0 mm 0.00 in0.0 mm
07:10 PM 97.1°F36.2°C 70.9°F21.6°C 43% 5.8 mph SE9.3 kmh SE 11.5 mph18.5 kmh 29.84 in1010.5 mb - 0.00 in0.0 mm 0.00 in0.0 mm
07:00 PM 97.4°F36.3°C 71.2°F21.8°C 43% 5.8 mph SE9.3 kmh SE 6.9 mph11.1 kmh 29.84 in1010.5 mb - 0.00 in0.0 mm 0.00 in0.0 mm
06:50 PM 97.8°F36.6°C 71.5°F21.9°C 43% 8.1 mph SE13.0 kmh SE 12.7 mph20.4 kmh 29.84 in1010.5 mb - 0.00 in0.0 mm 0.00 in0.0 mm
06:40 PM 98.2°F36.8°C 71.9°F22.2°C 43% 4.6 mph S7.4 kmh S 4.6 mph7.4 kmh 29.85 in1010.8 mb - 0.00 in0.0 mm 0.00 in0.0 mm
06:30 PM 98.5°F36.9°C 70.8°F21.6°C 41% 8.1 mph S13.0 kmh S 15.0 mph24.1 kmh 29.85 in1010.8 mb - 0.00 in0.0 mm 0.00 in0.0 mm
06:20 PM 99.4°F37.4°C 70.8°F21.6°C 40% 5.8 mph SE9.3 kmh SE 10.4 mph16.7 kmh 29.85 in1010.8 mb - 0.00 in0.0 mm 0.00 in0.0 mm
06:10 PM 99.4°F37.4°C 70.8°F21.6°C 40% 2.3 mph SE3.7 kmh SE 3.5 mph5.6 kmh 29.85 in1010.8 mb - 0.00 in0.0 mm 0.00 in0.0 mm
06:00 PM 99.1°F37.3°C 71.2°F21.8°C 41% 6.9 mph SSE11.1 kmh SSE 11.5 mph18.5 kmh 29.86 in1011.2 mb - 0.00 in0.0 mm 0.00 in0.0 mm
05:50 PM 99.1°F37.3°C 71.3°F21.8°C 41% 6.9 mph S11.1 kmh S 9.2 mph14.8 kmh 29.86 in1011.2 mb - 0.00 in0.0 mm 0.00 in0.0 mm
05:40 PM 99.5°F37.5°C 70.9°F21.6°C 40% 9.2 mph ESE14.8 kmh ESE 13.8 mph22.2 kmh 29.86 in1011.2 mb - 0.00 in0.0 mm 0.00 in0.0 mm
05:30 PM 100.0°F37.8°C 70.6°F21.4°C 39% 10.4 mph SE16.7 kmh SE 15.0 mph24.1 kmh 29.86 in1011.2 mb - 0.00 in0.0 mm 0.00 in0.0 mm
05:20 PM 100.2°F37.9°C 70.0°F21.1°C 38% 5.8 mph ESE9.3 kmh ESE 9.2 mph14.8 kmh 29.86 in1011.2 mb - 0.00 in0.0 mm 0.00 in0.0 mm
05:10 PM 100.3°F37.9°C 70.9°F21.6°C 39% 6.9 mph S11.1 kmh S 11.5 mph18.5 kmh 29.86 in1011.2 mb - 0.00 in0.0 mm 0.00 in0.0 mm
05:00 PM 99.7°F37.6°C 70.3°F21.3°C 39% 2.3 mph SE3.7 kmh SE 4.6 mph7.4 kmh 29.86 in1011.2 mb - 0.00 in0.0 mm 0.00 in0.0 mm
04:50 PM 99.8°F37.7°C 70.5°F21.4°C 39% 6.9 mph ESE11.1 kmh ESE 11.5 mph18.5 kmh 29.86 in1011.2 mb - 0.00 in0.0 mm 0.00 in0.0 mm
04:40 PM 99.6°F37.6°C 67.9°F19.9°C 36% 4.6 mph SSE7.4 kmh SSE 9.2 mph14.8 kmh 29.87 in1011.5 mb - 0.00 in0.0 mm 0.00 in0.0 mm
04:30 PM 99.9°F37.7°C 69.8°F21.0°C 38% 6.9 mph SE11.1 kmh SE 16.1 mph25.9 kmh 29.87 in1011.5 mb - 0.00 in0.0 mm 0.00 in0.0 mm
04:20 PM 100.3°F37.9°C 70.1°F21.2°C 38% 5.8 mph E9.3 kmh E 8.1 mph13.0 kmh 29.87 in1011.5 mb - 0.00 in0.0 mm 0.00 in0.0 mm
04:10 PM 99.9°F37.7°C 70.5°F21.4°C 39% 5.8 mph SE9.3 kmh SE 11.5 mph18.5 kmh 29.87 in1011.5 mb - 0.00 in0.0 mm 0.00 in0.0 mm
04:00 PM 99.3°F37.4°C 70.7°F21.5°C 40% 8.1 mph SE13.0 kmh SE 12.7 mph20.4 kmh 29.88 in1011.9 mb - 0.00 in0.0 mm 0.00 in0.0 mm
03:50 PM 101.0°F38.3°C 70.7°F21.5°C 38% 6.9 mph E11.1 kmh E 8.1 mph13.0 kmh 29.88 in1011.9 mb - 0.00 in0.0 mm 0.00 in0.0 mm
03:40 PM 100.1°F37.8°C 72.9°F22.7°C 42% 6.9 mph S11.1 kmh S 11.5 mph18.5 kmh 29.88 in1011.9 mb - 0.00 in0.0 mm 0.00 in0.0 mm
03:30 PM 99.8°F37.7°C 73.3°F22.9°C 43% 4.6 mph E7.4 kmh E 5.8 mph9.3 kmh 29.89 in1012.2 mb - 0.00 in0.0 mm 0.00 in0.0 mm
03:20 PM 100.8°F38.2°C 73.5°F23.1°C 42% 6.9 mph ESE11.1 kmh ESE 10.4 mph16.7 kmh 29.89 in1012.2 mb - 0.00 in0.0 mm 0.00 in0.0 mm
03:10 PM 99.8°F37.7°C 73.3°F22.9°C 43% 6.9 mph SE11.1 kmh SE 11.5 mph18.5 kmh 29.89 in1012.2 mb - 0.00 in0.0 mm 0.00 in0.0 mm
03:00 PM 99.8°F37.7°C 71.9°F22.2°C 41% 3.5 mph SE5.6 kmh SE 6.9 mph11.1 kmh 29.90 in1012.5 mb - 0.00 in0.0 mm 0.00 in0.0 mm
02:50 PM 99.4°F37.4°C 73.7°F23.2°C 44% 5.8 mph SE9.3 kmh SE 6.9 mph11.1 kmh 29.90 in1012.5 mb - 0.00 in0.0 mm 0.00 in0.0 mm
02:40 PM 99.4°F37.4°C 73.6°F23.1°C 44% 6.9 mph S11.1 kmh S 11.5 mph18.5 kmh 29.90 in1012.5 mb - 0.00 in0.0 mm 0.00 in0.0 mm
02:30 PM 98.0°F36.7°C 73.1°F22.8°C 45% 3.5 mph SE5.6 kmh SE 2.3 mph3.7 kmh 29.91 in1012.9 mb - 0.00 in0.0 mm 0.00 in0.0 mm
02:20 PM 98.0°F36.7°C 73.1°F22.8°C 45% 4.6 mph S7.4 kmh S 5.8 mph9.3 kmh 29.91 in1012.9 mb - 0.00 in0.0 mm 0.00 in0.0 mm
02:10 PM 99.3°F37.4°C 74.2°F23.4°C 45% 8.1 mph SSE13.0 kmh SSE 10.4 mph16.7 kmh 29.91 in1012.9 mb - 0.00 in0.0 mm 0.00 in0.0 mm
02:00 PM 98.6°F37.0°C 74.2°F23.4°C 46% 6.9 mph SSE11.1 kmh SSE 13.8 mph22.2 kmh 29.91 in1012.9 mb - 0.00 in0.0 mm 0.00 in0.0 mm
01:50 PM 98.3°F36.8°C 74.0°F23.3°C 46% 1.2 mph E1.9 kmh E 4.6 mph7.4 kmh 29.92 in1013.2 mb - 0.00 in0.0 mm 0.00 in0.0 mm
01:40 PM 99.4°F37.4°C 75.0°F23.9°C 46% 9.2 mph SE14.8 kmh SE 15.0 mph24.1 kmh 29.92 in1013.2 mb - 0.00 in0.0 mm 0.00 in0.0 mm
01:30 PM 98.1°F36.7°C 73.1°F22.8°C 45% 4.6 mph S7.4 kmh S 6.9 mph11.1 kmh 29.92 in1013.2 mb - 0.00 in0.0 mm 0.00 in0.0 mm
01:20 PM 98.3°F36.8°C 74.6°F23.7°C 47% 2.3 mph SE3.7 kmh SE 3.5 mph5.6 kmh 29.93 in1013.5 mb - 0.00 in0.0 mm 0.00 in0.0 mm
01:10 PM 97.4°F36.3°C 74.5°F23.6°C 48% 3.5 mph S5.6 kmh S 6.9 mph11.1 kmh 29.93 in1013.5 mb - 0.00 in0.0 mm 0.00 in0.0 mm
01:00 PM 97.3°F36.3°C 73.7°F23.2°C 47% 5.8 mph S9.3 kmh S 6.9 mph11.1 kmh 29.93 in1013.5 mb - 0.00 in0.0 mm 0.00 in0.0 mm
12:50 PM 97.2°F36.2°C 74.8°F23.8°C 49% 5.8 mph SE9.3 kmh SE 8.1 mph13.0 kmh 29.93 in1013.5 mb - 0.00 in0.0 mm 0.00 in0.0 mm
12:40 PM 96.9°F36.1°C 74.6°F23.7°C 49% 4.6 mph S7.4 kmh S 10.4 mph16.7 kmh 29.94 in1013.9 mb - 0.00 in0.0 mm 0.00 in0.0 mm
12:30 PM 96.8°F36.0°C 73.9°F23.3°C 48% 6.9 mph S11.1 kmh S 15.0 mph24.1 kmh 29.94 in1013.9 mb - 0.00 in0.0 mm 0.00 in0.0 mm
12:20 PM 96.4°F35.8°C 74.7°F23.7°C 50% 5.8 mph S9.3 kmh S 8.1 mph13.0 kmh 29.94 in1013.9 mb - 0.00 in0.0 mm 0.00 in0.0 mm
12:10 PM 96.7°F35.9°C 75.0°F23.9°C 50% 5.8 mph S9.3 kmh S 10.4 mph16.7 kmh 29.94 in1013.9 mb - 0.00 in0.0 mm 0.00 in0.0 mm
12:00 PM 96.1°F35.6°C 75.1°F23.9°C 51% 3.5 mph SE5.6 kmh SE 6.9 mph11.1 kmh 29.95 in1014.2 mb - 0.00 in0.0 mm 0.00 in0.0 mm
11:50 AM 96.1°F35.6°C 75.0°F23.9°C 51% 5.8 mph S9.3 kmh S 6.9 mph11.1 kmh 29.95 in1014.2 mb - 0.00 in0.0 mm 0.00 in0.0 mm
11:40 AM 95.1°F35.1°C 75.3°F24.1°C 53% 4.6 mph SSW7.4 kmh SSW 5.8 mph9.3 kmh 29.95 in1014.2 mb - 0.00 in0.0 mm 0.00 in0.0 mm
11:30 AM 94.9°F34.9°C 75.7°F24.3°C 54% 6.9 mph S11.1 kmh S 11.5 mph18.5 kmh 29.95 in1014.2 mb - 0.00 in0.0 mm 0.00 in0.0 mm
11:20 AM 94.6°F34.8°C 74.8°F23.8°C 53% 4.6 mph SW7.4 kmh SW 6.9 mph11.1 kmh 29.95 in1014.2 mb - 0.00 in0.0 mm 0.00 in0.0 mm
11:10 AM 93.7°F34.3°C 75.1°F23.9°C 55% 3.5 mph SW5.6 kmh SW 4.6 mph7.4 kmh 29.94 in1013.9 mb - 0.00 in0.0 mm 0.00 in0.0 mm
11:00 AM 93.3°F34.1°C 74.7°F23.7°C 55% 5.8 mph SSW9.3 kmh SSW 8.1 mph13.0 kmh 29.94 in1013.9 mb - 0.00 in0.0 mm 0.00 in0.0 mm
10:50 AM 93.2°F34.0°C 75.2°F24.0°C 56% 4.6 mph SSW7.4 kmh SSW 8.1 mph13.0 kmh 29.94 in1013.9 mb - 0.00 in0.0 mm 0.00 in0.0 mm
10:40 AM 93.0°F33.9°C 75.0°F23.9°C 56% 2.3 mph SE3.7 kmh SE 4.6 mph7.4 kmh 29.94 in1013.9 mb - 0.00 in0.0 mm 0.00 in0.0 mm
10:30 AM 92.7°F33.7°C 75.2°F24.0°C 57% 5.8 mph SSE9.3 kmh SSE 8.1 mph13.0 kmh 29.94 in1013.9 mb - 0.00 in0.0 mm 0.00 in0.0 mm
10:20 AM 91.7°F33.2°C 74.8°F23.8°C 58% 5.8 mph S9.3 kmh S 8.1 mph13.0 kmh 29.93 in1013.5 mb - 0.00 in0.0 mm 0.00 in0.0 mm
10:10 AM 91.0°F32.8°C 74.2°F23.4°C 58% 5.8 mph SSW9.3 kmh SSW 8.1 mph13.0 kmh 29.93 in1013.5 mb - 0.00 in0.0 mm 0.00 in0.0 mm
10:00 AM 90.3°F32.4°C 74.5°F23.6°C 60% 4.6 mph SSW7.4 kmh SSW 4.6 mph7.4 kmh 29.93 in1013.5 mb - 0.00 in0.0 mm 0.00 in0.0 mm
09:50 AM 89.6°F32.0°C 74.4°F23.6°C 61% 4.6 mph SW7.4 kmh SW 9.2 mph14.8 kmh 29.93 in1013.5 mb - 0.00 in0.0 mm 0.00 in0.0 mm
09:40 AM 88.4°F31.3°C 73.7°F23.2°C 62% 5.8 mph SW9.3 kmh SW 6.9 mph11.1 kmh 29.93 in1013.5 mb - 0.00 in0.0 mm 0.00 in0.0 mm
09:30 AM 87.5°F30.8°C 74.3°F23.5°C 65% 4.6 mph S7.4 kmh S 6.9 mph11.1 kmh 29.93 in1013.5 mb - 0.00 in0.0 mm 0.00 in0.0 mm
09:20 AM 86.5°F30.3°C 74.2°F23.4°C 67% 4.6 mph SSW7.4 kmh SSW 8.1 mph13.0 kmh 29.93 in1013.5 mb - 0.00 in0.0 mm 0.00 in0.0 mm
09:10 AM 85.6°F29.8°C 73.8°F23.2°C 68% 3.5 mph SW5.6 kmh SW 5.8 mph9.3 kmh 29.93 in1013.5 mb - 0.00 in0.0 mm 0.00 in0.0 mm
09:00 AM 84.8°F29.3°C 74.4°F23.6°C 71% 3.5 mph SW5.6 kmh SW 3.5 mph5.6 kmh 29.93 in1013.5 mb - 0.00 in0.0 mm 0.00 in0.0 mm
08:50 AM 84.1°F28.9°C 74.9°F23.8°C 74% 3.5 mph S5.6 kmh S 3.5 mph5.6 kmh 29.93 in1013.5 mb - 0.00 in0.0 mm 0.00 in0.0 mm
08:40 AM 83.2°F28.4°C 74.9°F23.8°C 76% 3.5 mph S5.6 kmh S 5.8 mph9.3 kmh 29.94 in1013.9 mb - 0.00 in0.0 mm 0.00 in0.0 mm
08:30 AM 82.4°F28.0°C 74.4°F23.6°C 77% 2.3 mph S3.7 kmh S 3.5 mph5.6 kmh 29.93 in1013.5 mb - 0.00 in0.0 mm 0.00 in0.0 mm
08:20 AM 81.8°F27.7°C 74.6°F23.7°C 79% 3.5 mph S5.6 kmh S 4.6 mph7.4 kmh 29.93 in1013.5 mb - 0.00 in0.0 mm 0.00 in0.0 mm
08:10 AM 81.3°F27.4°C 74.6°F23.7°C 80% 1.2 mph SSE1.9 kmh SSE 4.6 mph7.4 kmh 29.93 in1013.5 mb - 0.00 in0.0 mm 0.00 in0.0 mm
08:00 AM 80.9°F27.2°C 74.1°F23.4°C 80% 3.5 mph SSE5.6 kmh SSE 5.8 mph9.3 kmh 29.93 in1013.5 mb - 0.00 in0.0 mm 0.00 in0.0 mm
07:50 AM 80.3°F26.8°C 73.9°F23.3°C 81% 2.3 mph SE3.7 kmh SE 3.5 mph5.6 kmh 29.93 in1013.5 mb - 0.00 in0.0 mm 0.00 in0.0 mm
07:40 AM 79.8°F26.6°C 73.8°F23.2°C 82% 3.5 mph SE5.6 kmh SE 3.5 mph5.6 kmh 29.93 in1013.5 mb - 0.00 in0.0 mm 0.00 in0.0 mm
07:30 AM 79.3°F26.3°C 73.3°F22.9°C 82% 2.3 mph SSE3.7 kmh SSE 3.5 mph5.6 kmh 29.93 in1013.5 mb - 0.00 in0.0 mm 0.00 in0.0 mm
07:20 AM 79.2°F26.2°C 73.2°F22.9°C 82% 1.2 mph SSE1.9 kmh SSE 3.5 mph5.6 kmh 29.92 in1013.2 mb - 0.00 in0.0 mm 0.00 in0.0 mm
07:10 AM 79.3°F26.3°C 73.3°F22.9°C 82% 1.2 mph SSE1.9 kmh SSE 2.3 mph3.7 kmh 29.92 in1013.2 mb - 0.00 in0.0 mm 0.00 in0.0 mm
07:00 AM 79.5°F26.4°C 73.2°F22.9°C 81% 1.2 mph SSE1.9 kmh SSE 2.3 mph3.7 kmh 29.92 in1013.2 mb - 0.00 in0.0 mm 0.00 in0.0 mm
06:50 AM 79.7°F26.5°C 73.3°F22.9°C 81% 1.2 mph SSE1.9 kmh SSE 2.3 mph3.7 kmh 29.91 in1012.9 mb - 0.00 in0.0 mm 0.00 in0.0 mm
06:40 AM 79.8°F26.6°C 73.1°F22.8°C 80% 2.3 mph SSE3.7 kmh SSE 4.6 mph7.4 kmh 29.91 in1012.9 mb - 0.00 in0.0 mm 0.00 in0.0 mm
06:30 AM 79.9°F26.6°C 73.2°F22.9°C 80% 2.3 mph SE3.7 kmh SE 3.5 mph5.6 kmh 29.91 in1012.9 mb - 0.00 in0.0 mm 0.00 in0.0 mm
06:20 AM 80.0°F26.7°C 73.3°F22.9°C 80% 1.2 mph SE1.9 kmh SE 3.5 mph5.6 kmh 29.91 in1012.9 mb - 0.00 in0.0 mm 0.00 in0.0 mm
06:10 AM 80.2°F26.8°C 73.1°F22.8°C 79% 2.3 mph SE3.7 kmh SE 4.6 mph7.4 kmh 29.91 in1012.9 mb - 0.00 in0.0 mm 0.00 in0.0 mm
06:00 AM 80.3°F26.8°C 73.2°F22.9°C 79% 2.3 mph SE3.7 kmh SE 4.6 mph7.4 kmh 29.91 in1012.9 mb - 0.00 in0.0 mm 0.00 in0.0 mm
05:50 AM 80.5°F26.9°C 73.0°F22.8°C 78% 1.2 mph SSE1.9 kmh SSE 2.3 mph3.7 kmh 29.91 in1012.9 mb - 0.00 in0.0 mm 0.00 in0.0 mm
05:40 AM 80.7°F27.1°C 73.2°F22.9°C 78% 2.3 mph SSE3.7 kmh SSE 4.6 mph7.4 kmh 29.90 in1012.5 mb - 0.00 in0.0 mm 0.00 in0.0 mm
05:30 AM 80.8°F27.1°C 72.9°F22.7°C 77% 2.3 mph SSE3.7 kmh SSE 3.5 mph5.6 kmh 29.90 in1012.5 mb - 0.00 in0.0 mm 0.00 in0.0 mm
05:20 AM 81.1°F27.3°C 73.2°F22.9°C 77% 3.5 mph S5.6 kmh S 3.5 mph5.6 kmh 29.90 in1012.5 mb - 0.00 in0.0 mm 0.00 in0.0 mm
05:10 AM 81.3°F27.4°C 73.0°F22.8°C 76% 3.5 mph S5.6 kmh S 4.6 mph7.4 kmh 29.90 in1012.5 mb - 0.00 in0.0 mm 0.00 in0.0 mm
05:00 AM 81.6°F27.6°C 73.3°F22.9°C 76% 4.6 mph SE7.4 kmh SE 5.8 mph9.3 kmh 29.90 in1012.5 mb - 0.00 in0.0 mm 0.00 in0.0 mm
04:50 AM 81.8°F27.7°C 73.1°F22.8°C 75% 4.6 mph SE7.4 kmh SE 5.8 mph9.3 kmh 29.89 in1012.2 mb - 0.00 in0.0 mm 0.00 in0.0 mm
04:40 AM 82.1°F27.8°C 73.0°F22.8°C 74% 3.5 mph SE5.6 kmh SE 5.8 mph9.3 kmh 29.89 in1012.2 mb - 0.00 in0.0 mm 0.00 in0.0 mm
04:30 AM 82.4°F28.0°C 72.9°F22.7°C 73% 4.6 mph SE7.4 kmh SE 5.8 mph9.3 kmh 29.89 in1012.2 mb - 0.00 in0.0 mm 0.00 in0.0 mm
04:20 AM 82.4°F28.0°C 72.9°F22.7°C 73% 4.6 mph SE7.4 kmh SE 5.8 mph9.3 kmh 29.89 in1012.2 mb - 0.00 in0.0 mm 0.00 in0.0 mm
04:10 AM 82.7°F28.2°C 72.7°F22.6°C 72% Calm Calm -- 29.89 in1012.2 mb - 0.00 in0.0 mm 0.00 in0.0 mm
04:00 AM 83.0°F28.3°C 72.6°F22.6°C 71% 1.2 mph S1.9 kmh S 3.5 mph5.6 kmh 29.89 in1012.2 mb - 0.00 in0.0 mm 0.00 in0.0 mm
03:50 AM 83.3°F28.5°C 72.5°F22.5°C 70% 1.2 mph S1.9 kmh S 1.2 mph1.9 kmh 29.88 in1011.9 mb - 0.00 in0.0 mm 0.00 in0.0 mm
03:40 AM 83.7°F28.7°C 72.9°F22.7°C 70% 1.2 mph SSE1.9 kmh SSE 1.2 mph1.9 kmh 29.88 in1011.9 mb - 0.00 in0.0 mm 0.00 in0.0 mm
03:30 AM 84.0°F28.9°C 72.7°F22.6°C 69% 3.5 mph S5.6 kmh S 4.6 mph7.4 kmh 29.88 in1011.9 mb - 0.00 in0.0 mm 0.00 in0.0 mm
03:20 AM 84.2°F29.0°C 72.5°F22.5°C 68% 4.6 mph SSE7.4 kmh SSE 9.2 mph14.8 kmh 29.88 in1011.9 mb - 0.00 in0.0 mm 0.00 in0.0 mm
03:10 AM 84.5°F29.2°C 72.3°F22.4°C 67% 3.5 mph SSE5.6 kmh SSE 6.9 mph11.1 kmh 29.87 in1011.5 mb - 0.00 in0.0 mm 0.00 in0.0 mm
03:00 AM 84.7°F29.3°C 72.1°F22.3°C 66% 4.6 mph SSE7.4 kmh SSE 6.9 mph11.1 kmh 29.87 in1011.5 mb - 0.00 in0.0 mm 0.00 in0.0 mm
02:50 AM 84.8°F29.3°C 72.2°F22.3°C 66% 5.8 mph SSE9.3 kmh SSE 9.2 mph14.8 kmh 29.87 in1011.5 mb - 0.00 in0.0 mm 0.00 in0.0 mm
02:40 AM 84.9°F29.4°C 71.8°F22.1°C 65% 6.9 mph SSE11.1 kmh SSE 10.4 mph16.7 kmh 29.88 in1011.9 mb - 0.00 in0.0 mm 0.00 in0.0 mm
02:30 AM 84.9°F29.4°C 71.8°F22.1°C 65% 4.6 mph SSE7.4 kmh SSE 8.1 mph13.0 kmh 29.88 in1011.9 mb - 0.00 in0.0 mm 0.00 in0.0 mm
02:20 AM 85.0°F29.4°C 71.9°F22.2°C 65% 4.6 mph SSE7.4 kmh SSE 8.1 mph13.0 kmh 29.88 in1011.9 mb - 0.00 in0.0 mm 0.00 in0.0 mm
02:10 AM 85.3°F29.6°C 72.2°F22.3°C 65% 3.5 mph SSE5.6 kmh SSE 4.6 mph7.4 kmh 29.88 in1011.9 mb - 0.00 in0.0 mm 0.00 in0.0 mm
02:00 AM 85.8°F29.9°C 71.7°F22.1°C 63% 2.3 mph SSE3.7 kmh SSE 3.5 mph5.6 kmh 29.89 in1012.2 mb - 0.00 in0.0 mm 0.00 in0.0 mm
01:50 AM 86.3°F30.2°C 72.2°F22.3°C 63% 1.2 mph SSE1.9 kmh SSE 2.3 mph3.7 kmh 29.89 in1012.2 mb - 0.00 in0.0 mm 0.00 in0.0 mm
01:40 AM 86.6°F30.3°C 72.0°F22.2°C 62% 3.5 mph SSE5.6 kmh SSE 5.8 mph9.3 kmh 29.89 in1012.2 mb - 0.00 in0.0 mm 0.00 in0.0 mm
01:30 AM 86.9°F30.5°C 71.8°F22.1°C 61% 4.6 mph SE7.4 kmh SE 6.9 mph11.1 kmh 29.89 in1012.2 mb - 0.00 in0.0 mm 0.00 in0.0 mm
01:20 AM 87.0°F30.6°C 71.9°F22.2°C 61% 6.9 mph SE11.1 kmh SE 11.5 mph18.5 kmh 29.89 in1012.2 mb - 0.00 in0.0 mm 0.00 in0.0 mm
01:10 AM 87.1°F30.6°C 72.0°F22.2°C 61% 5.8 mph SE9.3 kmh SE 11.5 mph18.5 kmh 29.90 in1012.5 mb - 0.00 in0.0 mm 0.00 in0.0 mm
01:00 AM 87.2°F30.7°C 71.6°F22.0°C 60% 5.8 mph SE9.3 kmh SE 8.1 mph13.0 kmh 29.90 in1012.5 mb - 0.00 in0.0 mm 0.00 in0.0 mm
12:50 AM 87.4°F30.8°C 71.8°F22.1°C 60% 5.8 mph SSE9.3 kmh SSE 9.2 mph14.8 kmh 29.90 in1012.5 mb - 0.00 in0.0 mm 0.00 in0.0 mm
12:40 AM 87.5°F30.8°C 71.9°F22.2°C 60% 4.6 mph SE7.4 kmh SE 9.2 mph14.8 kmh 29.91 in1012.9 mb - 0.00 in0.0 mm 0.00 in0.0 mm
12:30 AM 87.6°F30.9°C 72.0°F22.2°C 60% 4.6 mph SSE7.4 kmh SSE 6.9 mph11.1 kmh 29.91 in1012.9 mb - 0.00 in0.0 mm 0.00 in0.0 mm
12:20 AM 87.9°F31.1°C 72.3°F22.4°C 60% 4.6 mph SE7.4 kmh SE 4.6 mph7.4 kmh 29.90 in1012.5 mb - 0.00 in0.0 mm 0.00 in0.0 mm
12:10 AM 88.1°F31.2°C 72.0°F22.2°C 59% 4.6 mph SE7.4 kmh SE 8.1 mph13.0 kmh 29.90 in1012.5 mb - 0.00 in0.0 mm 0.00 in0.0 mm
12:00 AM 88.3°F31.3°C 72.1°F22.3°C 59% 5.8 mph SSE9.3 kmh SSE 6.9 mph11.1 kmh 29.90 in1012.5 mb - 0.00 in0.0 mm 0.00 in0.0 mm